Time;durP1;ratioP1;P1;durP2;ratioP2;P2;SDS_P1;SDS_P2;PMS_P1;PMS_P2;Temp;Humidity;BMP_temperature;BMP_pressure;BME280_temperature;BME280_humidity;BME280_pressure;Samples;Min_cycle;Max_cycle;Signal;HPM_P1;HPM_P2
2022/12/26 00:00:29;;;;;;;;;;;;;;;;;;5097496;28;19912;-68
2022/12/26 00:02:55;;;;;;;;;;;;;;;;;;5079295;28;19908;-68
2022/12/26 00:05:21;;;;;;;;;;;;;;;;;;5097011;28;19908;-68
2022/12/26 00:07:47;;;;;;;;;;;;;;;;;;5079104;28;19916;-68
2022/12/26 00:10:13;;;;;;;;;;;;;;;;;;5097359;28;19960;-68
2022/12/26 00:12:39;;;;;;;;;;;;;;;;;;5078590;28;19912;-68
2022/12/26 00:15:05;;;;;;;;;;;;;;;;;;5097432;28;19915;-68
2022/12/26 00:17:31;;;;;;;;;;;;;;;;;;5079018;28;19916;-68
2022/12/26 00:19:57;;;;;;;;;;;;;;;;;;5096787;28;19908;-68
2022/12/26 00:22:23;;;;;;;;;;;;;;;;;;5097219;28;19915;-68
2022/12/26 00:24:49;;;;;;;;;;;;;;;;;;5078787;28;19944;-68
2022/12/26 00:27:15;;;;;;;;;;;;;;;;;;5096368;28;19942;-68
2022/12/26 00:29:41;;;;;;;;;;;;;;;;;;5097299;28;20041;-68
2022/12/26 00:32:06;;;;;;;;;;;;;;;;;;5096923;28;19909;-68
2022/12/26 00:34:32;;;;;;;;;;;;;;;;;;5078365;28;19909;-68
2022/12/26 00:36:58;;;;;;;;;;;;;;;;;;5097140;28;19914;-68
2022/12/26 00:39:24;;;;;;;;;;;;;;;;;;5096818;28;19909;-68
2022/12/26 00:41:50;;;;;;;;;;;;;;;;;;5096358;28;20373;-68
2022/12/26 00:44:16;;;;;;;;;;;;;;;;;;5078573;28;20008;-68
2022/12/26 00:46:42;;;;;;;;;;;;;;;;;;5096185;28;19923;-68
2022/12/26 00:49:08;;;;;;;;;;;;;;;;;;5078626;28;20053;-69
2022/12/26 00:51:34;;;;;;;;;;;;;;;;;;5078367;28;19974;-68
2022/12/26 00:54:00;;;;;;;;;;;;;;;;;;5096121;28;19915;-68
2022/12/26 00:56:26;;;;;;;;;;;;;;;;;;5096815;28;20005;-70
2022/12/26 00:58:52;;;;;;;;;;;;;;;;;;5077906;28;19908;-68
2022/12/26 01:01:18;;;;;;;;;;;;;;;;;;5077932;28;19912;-68
2022/12/26 01:03:44;;;;;;;;;;;;;;;;;;5096399;28;19909;-69
2022/12/26 01:06:10;;;;;;;;;;;;;;;;;;5096371;28;20007;-68
2022/12/26 01:08:36;;;;;;;;;;;;;;;;;;5095983;28;19912;-68
2022/12/26 01:11:02;;;;;;;;;;;;;;;;;;5096275;28;20317;-68
2022/12/26 01:13:27;;;;;;;;;;;;;;;;;;5096212;28;19977;-68
2022/12/26 01:15:53;;;;;;;;;;;;;;;;;;5095931;28;19915;-68
2022/12/26 01:18:19;;;;;;;;;;;;;;;;;;5096118;28;19913;-68
2022/12/26 01:20:45;;;;;;;;;;;;;;;;;;5095978;28;19932;-68
2022/12/26 01:23:11;;;;;;;;;;;;;;;;;;5095685;28;19908;-68
2022/12/26 01:25:37;;;;;;;;;;;;;;;;;;5095965;28;19912;-68
2022/12/26 01:28:03;;;;;;;;;;;;;;;;;;5077460;28;19927;-68
2022/12/26 01:30:29;;;;;;;;;;;;;;;;;;5077291;28;20007;-69
2022/12/26 01:32:55;;;;;;;;;;;;;;;;;;5096025;28;20360;-68
2022/12/26 01:35:21;;;;;;;;;;;;;;;;;;5095765;28;19993;-68
2022/12/26 01:37:47;;;;;;;;;;;;;;;;;;5095343;28;19931;-68
2022/12/26 01:40:13;;;;;;;;;;;;;;;;;;5095646;28;19908;-68
2022/12/26 01:42:39;;;;;;;;;;;;;;;;;;5095590;28;19916;-68
2022/12/26 01:45:05;;;;;;;;;;;;;;;;;;5095194;28;19919;-68
2022/12/26 01:47:31;;;;;;;;;;;;;;;;;;5095456;28;20026;-68
2022/12/26 01:49:57;;;;;;;;;;;;;;;;;;5077350;28;19908;-68
2022/12/26 01:52:23;;;;;;;;;;;;;;;;;;5095016;28;19998;-68
2022/12/26 01:54:49;;;;;;;;;;;;;;;;;;5095285;28;19984;-68
2022/12/26 01:57:14;;;;;;;;;;;;;;;;;;5094948;28;19915;-68
2022/12/26 01:59:40;;;;;;;;;;;;;;;;;;5077138;28;19908;-68
2022/12/26 02:02:06;;;;;;;;;;;;;;;;;;5095244;28;20049;-68
2022/12/26 02:07:17;;;;;;;;;;;;;;;;;;5095127;28;19961;-68
2022/12/26 02:09:43;;;;;;;;;;;;;;;;;;5095079;28;19912;-68
2022/12/26 02:12:09;;;;;;;;;;;;;;;;;;5093767;28;19912;-69
2022/12/26 02:14:35;;;;;;;;;;;;;;;;;;5076814;28;19908;-68
2022/12/26 02:17:01;;;;;;;;;;;;;;;;;;5076758;28;19908;-68
2022/12/26 02:19:27;;;;;;;;;;;;;;;;;;5076319;28;19915;-68
2022/12/26 02:21:53;;;;;;;;;;;;;;;;;;5094936;28;19999;-68
2022/12/26 02:24:18;;;;;;;;;;;;;;;;;;5094751;28;19918;-68
2022/12/26 02:26:44;;;;;;;;;;;;;;;;;;5094082;28;19966;-68
2022/12/26 02:29:10;;;;;;;;;;;;;;;;;;5076542;28;19908;-68
2022/12/26 02:31:36;;;;;;;;;;;;;;;;;;5095240;28;20356;-68
2022/12/26 02:34:02;;;;;;;;;;;;;;;;;;5094255;28;19908;-68
2022/12/26 02:36:28;;;;;;;;;;;;;;;;;;5076397;28;19922;-68
2022/12/26 02:38:54;;;;;;;;;;;;;;;;;;5095176;28;19943;-68
2022/12/26 02:41:20;;;;;;;;;;;;;;;;;;5094086;28;19908;-68
2022/12/26 02:43:46;;;;;;;;;;;;;;;;;;5094541;28;19908;-68
2022/12/26 02:48:56;;;;;;;;;;;;;;;;;;5094411;28;19976;-68
2022/12/26 03:13:22;;;;;;;;;;;;;;;;;;5094038;28;19919;-68
2022/12/26 03:18:32;;;;;;;;;;;;;;;;;;5093997;28;19954;-68
2022/12/26 03:20:58;;;;;;;;;;;;;;;;;;5075808;28;20002;-68
2022/12/26 03:23:24;;;;;;;;;;;;;;;;;;5093308;28;19915;-68
2022/12/26 03:28:35;;;;;;;;;;;;;;;;;;5093392;28;20259;-68
2022/12/26 03:31:01;;;;;;;;;;;;;;;;;;5094195;28;20471;-68
2022/12/26 03:36:11;;;;;;;;;;;;;;;;;;5093619;28;19915;-68
2022/12/26 03:38:37;;;;;;;;;;;;;;;;;;5093776;28;19908;-68
2022/12/26 04:19:29;;;;;;;;;;;;;;;;;;5093124;28;19935;-68
2022/12/26 04:44:08;;;;;;;;;;;;;;;;;;5096799;28;19915;-68
2022/12/26 04:46:34;;;;;;;;;;;;;;;;;;5096433;28;20451;-68
2022/12/26 04:51:45;;;;;;;;;;;;;;;;;;5096901;28;19954;-68
2022/12/26 04:54:11;;;;;;;;;;;;;;;;;;5096193;28;19908;-69
2022/12/26 04:56:37;;;;;;;;;;;;;;;;;;5096452;28;19908;-69
2022/12/26 04:59:03;;;;;;;;;;;;;;;;;;5096519;28;20413;-68
2022/12/26 05:09:43;;;;;;;;;;;;;;;;;;5096323;28;20276;-68
2022/12/26 05:12:09;;;;;;;;;;;;;;;;;;5096227;28;19912;-68
2022/12/26 05:14:35;;;;;;;;;;;;;;;;;;5094824;28;20383;-68
2022/12/26 05:30:44;;;;;;;;;;;;;;;;;;5095925;28;19915;-68
2022/12/26 05:35:54;;;;;;;;;;;;;;;;;;5095431;28;19915;-68
2022/12/26 05:38:20;;;;;;;;;;;;;;;;;;5075937;28;19924;-68
2022/12/26 05:40:46;;;;;;;;;;;;;;;;;;5077636;28;19985;-68
2022/12/26 05:43:12;;;;;;;;;;;;;;;;;;5076296;28;19908;-68
2022/12/26 05:45:38;;;;;;;;;;;;;;;;;;5077281;28;19914;-68
2022/12/26 05:48:04;;;;;;;;;;;;;;;;;;5095477;28;19942;-68
2022/12/26 05:50:30;;;;;;;;;;;;;;;;;;5093727;28;19908;-68
2022/12/26 05:52:56;;;;;;;;;;;;;;;;;;5094414;28;20002;-68
2022/12/26 05:55:23;;;;;;;;;;;;;;;;;;5095677;28;20299;-68
2022/12/26 05:57:49;;;;;;;;;;;;;;;;;;5093111;28;19912;-68
2022/12/26 06:00:15;;;;;;;;;;;;;;;;;;5094895;28;19908;-68
2022/12/26 06:02:41;;;;;;;;;;;;;;;;;;5094884;28;19915;-68
2022/12/26 06:05:06;;;;;;;;;;;;;;;;;;5094388;28;19908;-68
2022/12/26 06:07:32;;;;;;;;;;;;;;;;;;5094580;28;19961;-68
2022/12/26 06:09:58;;;;;;;;;;;;;;;;;;5076262;28;19912;-67
2022/12/26 06:12:24;;;;;;;;;;;;;;;;;;5094758;28;19916;-68
2022/12/26 06:14:51;;;;;;;;;;;;;;;;;;5092226;28;19908;-69
2022/12/26 06:17:17;;;;;;;;;;;;;;;;;;5093793;28;19908;-69
2022/12/26 06:19:43;;;;;;;;;;;;;;;;;;5076055;28;20375;-68
2022/12/26 06:22:10;;;;;;;;;;;;;;;;;;5092989;28;20355;-68
2022/12/26 06:24:35;;;;;;;;;;;;;;;;;;5073276;28;20001;-68
2022/12/26 06:27:02;;;;;;;;;;;;;;;;;;5092982;28;19963;-70
2022/12/26 06:29:28;;;;;;;;;;;;;;;;;;5090564;28;19908;-69
2022/12/26 06:31:54;;;;;;;;;;;;;;;;;;5091179;28;19908;-70
2022/12/26 06:34:19;;;;;;;;;;;;;;;;;;5091336;28;19908;-69
2022/12/26 06:36:45;;;;;;;;;;;;;;;;;;5090506;28;19908;-68
2022/12/26 06:39:11;;;;;;;;;;;;;;;;;;5073251;28;20004;-67
2022/12/26 06:41:37;;;;;;;;;;;;;;;;;;5088390;28;19916;-68
2022/12/26 06:44:03;;;;;;;;;;;;;;;;;;5071196;28;19919;-68
2022/12/26 06:46:29;;;;;;;;;;;;;;;;;;5072651;28;20010;-69
2022/12/26 06:48:55;;;;;;;;;;;;;;;;;;5091456;28;19908;-69
2022/12/26 06:51:21;;;;;;;;;;;;;;;;;;5091696;28;19974;-69
2022/12/26 06:53:47;;;;;;;;;;;;;;;;;;5091567;28;19908;-69
2022/12/26 06:56:13;;;;;;;;;;;;;;;;;;5090896;28;20023;-71
2022/12/26 06:58:39;;;;;;;;;;;;;;;;;;5093099;28;20272;-69
2022/12/26 07:01:05;;;;;;;;;;;;;;;;;;5093216;28;19908;-69
2022/12/26 07:03:31;;;;;;;;;;;;;;;;;;5093513;28;19908;-68
2022/12/26 07:05:57;;;;;;;;;;;;;;;;;;5092450;28;20007;-67
2022/12/26 07:08:23;;;;;;;;;;;;;;;;;;5091272;28;20379;-67
2022/12/26 07:10:49;;;;;;;;;;;;;;;;;;5093337;28;20324;-68
2022/12/26 07:13:16;;;;;;;;;;;;;;;;;;5093302;28;19931;-67
2022/12/26 07:15:42;;;;;;;;;;;;;;;;;;5092787;28;19915;-67
2022/12/26 07:18:09;;;;;;;;;;;;;;;;;;5092007;28;19927;-67
2022/12/26 07:20:36;;;;;;;;;;;;;;;;;;5066961;28;19912;-68
2022/12/26 07:23:10;;;;;;;;;;;;;;;;;;5090691;28;19908;-67
2022/12/26 07:25:36;;;;;;;;;;;;;;;;;;5089476;28;19915;-68
2022/12/26 07:28:03;;;;;;;;;;;;;;;;;;5070352;28;19965;-69
2022/12/26 07:30:29;;;;;;;;;;;;;;;;;;5070560;28;19920;-69
2022/12/26 07:32:57;;;;;;;;;;;;;;;;;;5073006;28;19908;-69
2022/12/26 07:35:23;;;;;;;;;;;;;;;;;;5072596;28;19908;-69
2022/12/26 07:37:50;;;;;;;;;;;;;;;;;;5066667;28;19923;-69
2022/12/26 07:40:16;;;;;;;;;;;;;;;;;;5063048;28;19919;-67
2022/12/26 07:42:42;;;;;;;;;;;;;;;;;;5071299;28;19909;-67
2022/12/26 07:45:11;;;;;;;;;;;;;;;;;;5071068;28;19916;-66
2022/12/26 07:47:37;;;;;;;;;;;;;;;;;;5071625;28;19960;-69
2022/12/26 07:50:03;;;;;;;;;;;;;;;;;;5070565;28;19909;-69
2022/12/26 07:52:29;;;;;;;;;;;;;;;;;;5072439;28;19912;-67
2022/12/26 07:54:55;;;;;;;;;;;;;;;;;;5072463;28;19931;-69
2022/12/26 07:57:21;;;;;;;;;;;;;;;;;;5070599;28;19909;-70
2022/12/26 07:59:47;;;;;;;;;;;;;;;;;;5070186;28;20014;-68
2022/12/26 08:02:15;;;;;;;;;;;;;;;;;;5068789;28;19908;-69
2022/12/26 08:04:44;;;;;;;;;;;;;;;;;;5072297;28;19908;-69
2022/12/26 08:07:10;;;;;;;;;;;;;;;;;;5072011;28;20323;-68
2022/12/26 08:09:38;;;;;;;;;;;;;;;;;;5072922;28;19913;-67
2022/12/26 08:12:04;;;;;;;;;;;;;;;;;;5075983;28;20304;-68
2022/12/26 08:14:30;;;;;;;;;;;;;;;;;;5075636;28;19912;-70
2022/12/26 08:16:56;;;;;;;;;;;;;;;;;;5076013;28;19915;-68
2022/12/26 08:19:22;;;;;;;;;;;;;;;;;;5074650;28;19909;-70
2022/12/26 08:21:48;;;;;;;;;;;;;;;;;;5074502;28;19908;-68
2022/12/26 08:24:15;;;;;;;;;;;;;;;;;;5075111;28;19912;-68
2022/12/26 08:26:41;;;;;;;;;;;;;;;;;;5082850;28;19937;-69
2022/12/26 08:29:07;;;;;;;;;;;;;;;;;;5096350;28;19908;-69
2022/12/26 08:31:33;;;;;;;;;;;;;;;;;;5077769;28;19931;-69
2022/12/26 08:34:05;;;;;;;;;;;;;;;;;;5081550;28;19916;-69
2022/12/26 08:36:43;;;;;;;;;;;;;;;;;;5084126;28;20090;-69
2022/12/26 08:39:12;;;;;;;;;;;;;;;;;;5090081;28;20007;-68
2022/12/26 08:41:42;;;;;;;;;;;;;;;;;;5094096;28;19908;-68
2022/12/26 08:44:07;;;;;;;;;;;;;;;;;;5094821;28;19919;-67
2022/12/26 08:46:34;;;;;;;;;;;;;;;;;;5094313;28;19908;-67
2022/12/26 08:49:00;;;;;;;;;;;;;;;;;;5070835;28;19920;-67
2022/12/26 08:51:27;;;;;;;;;;;;;;;;;;5084254;28;19908;-68
2022/12/26 08:53:53;;;;;;;;;;;;;;;;;;5094103;28;20056;-68
2022/12/26 08:56:20;;;;;;;;;;;;;;;;;;5094994;28;19915;-69
2022/12/26 08:58:46;;;;;;;;;;;;;;;;;;5093939;28;19908;-68
2022/12/26 09:01:12;;;;;;;;;;;;;;;;;;5069252;28;20475;-69
2022/12/26 09:03:38;;;;;;;;;;;;;;;;;;5090499;28;19908;-68
2022/12/26 09:06:04;;;;;;;;;;;;;;;;;;5094200;28;20007;-68
2022/12/26 09:08:33;;;;;;;;;;;;;;;;;;5094975;28;19953;-68
2022/12/26 09:10:59;;;;;;;;;;;;;;;;;;5077213;28;20284;-68
2022/12/26 09:13:26;;;;;;;;;;;;;;;;;;5094455;28;20359;-71
2022/12/26 09:15:51;;;;;;;;;;;;;;;;;;5076743;28;19999;-69
2022/12/26 09:18:17;;;;;;;;;;;;;;;;;;5094947;28;19908;-70
2022/12/26 09:20:44;;;;;;;;;;;;;;;;;;5081001;28;19920;-69
2022/12/26 09:23:14;;;;;;;;;;;;;;;;;;5063067;28;19919;-69
2022/12/26 09:25:40;;;;;;;;;;;;;;;;;;5087484;28;19981;-69
2022/12/26 09:28:06;;;;;;;;;;;;;;;;;;5081608;28;19921;-69
2022/12/26 09:30:33;;;;;;;;;;;;;;;;;;5094605;28;19912;-69
2022/12/26 09:32:59;;;;;;;;;;;;;;;;;;5084465;28;19959;-69
2022/12/26 09:35:26;;;;;;;;;;;;;;;;;;5091468;28;19951;-70
2022/12/26 09:37:53;;;;;;;;;;;;;;;;;;5094414;28;20003;-69
2022/12/26 09:40:22;;;;;;;;;;;;;;;;;;5094300;28;19908;-70
2022/12/26 09:42:48;;;;;;;;;;;;;;;;;;5093610;28;19956;-69
2022/12/26 09:45:16;;;;;;;;;;;;;;;;;;5074010;28;19912;-69
2022/12/26 09:47:42;;;;;;;;;;;;;;;;;;5093800;28;19920;-68
2022/12/26 09:50:11;;;;;;;;;;;;;;;;;;5075454;28;19912;-68
2022/12/26 09:52:37;;;;;;;;;;;;;;;;;;5093770;28;19919;-68
2022/12/26 09:55:03;;;;;;;;;;;;;;;;;;5066631;28;19912;-71
2022/12/26 09:57:29;;;;;;;;;;;;;;;;;;5085599;28;19920;-70
2022/12/26 10:01:33;;;;;;;;;;;;;;;;;;4239644;27;24652231;-69
2022/12/26 10:05:04;;;;;;;;;;;;;;;;;;5087572;27;19917;-69
2022/12/26 10:07:30;;;;;;;;;;;;;;;;;;5088462;28;19923;-69
2022/12/26 10:12:13;;;;;;;;;;;;;;;;;;4269789;27;25329224;-68
2022/12/26 10:14:42;;;;;;;;;;;;;;;;;;5168706;27;19922;-68
2022/12/26 10:17:17;;;;;;;;;;;;;;;;;;5171072;27;19907;-71
2022/12/26 10:19:44;;;;;;;;;;;;;;;;;;5171079;27;19911;-70
2022/12/26 10:24:37;;;;;;;;;;;;;;;;;;5065294;27;19927;-67
2022/12/26 10:27:04;;;;;;;;;;;;;;;;;;5053659;28;19913;-71
2022/12/26 10:30:58;;;;;;;;;;;;;;;;;;5090364;27;19920;-71
2022/12/26 10:33:23;;;;;;;;;;;;;;;;;;5090254;28;19926;-69
2022/12/26 10:35:49;;;;;;;;;;;;;;;;;;5090388;28;19987;-69
2022/12/26 10:38:15;;;;;;;;;;;;;;;;;;5087238;28;19912;-68
2022/12/26 10:42:17;;;;;;;;;;;;;;;;;;5089927;27;19917;-71
2022/12/26 10:44:43;;;;;;;;;;;;;;;;;;5089289;28;19919;-70
2022/12/26 10:49:16;;;;;;;;;;;;;;;;;;5151173;27;20445;-67
2022/12/26 10:53:26;;;;;;;;;;;;;;;;;;5109405;27;19913;-69
2022/12/26 10:55:52;;;;;;;;;;;;;;;;;;5110460;28;19919;-68
2022/12/26 10:58:20;;;;;;;;;;;;;;;;;;5108442;28;19915;-68
2022/12/26 11:05:10;;;;;;;;;;;;;;;;;;4968895;27;2187147;-67
2022/12/26 11:07:42;;;;;;;;;;;;;;;;;;5021607;28;19920;-68
2022/12/26 11:10:20;;;;;;;;;;;;;;;;;;5019057;28;20638;-68
2022/12/26 11:12:52;;;;;;;;;;;;;;;;;;5004138;28;19923;-68
2022/12/26 11:15:23;;;;;;;;;;;;;;;;;;5020730;28;19913;-68
2022/12/26 11:18:49;;;;;;;;;;;;;;;;;;5130347;27;19973;-72
2022/12/26 11:21:14;;;;;;;;;;;;;;;;;;5130039;28;19912;-67
2022/12/26 11:23:40;;;;;;;;;;;;;;;;;;5130458;28;19914;-66
2022/12/26 11:26:06;;;;;;;;;;;;;;;;;;5129533;28;19928;-66
2022/12/26 11:33:32;;;;;;;;;;;;;;;;;;5063149;27;3073756;-67
2022/12/26 11:39:19;;;;;;;;;;;;;;;;;;5193306;27;19944;-67
2022/12/26 11:41:47;;;;;;;;;;;;;;;;;;5191922;27;19914;-67
2022/12/26 11:53:06;;;;;;;;;;;;;;;;;;5109166;28;19991;-68
2022/12/26 11:56:29;;;;;;;;;;;;;;;;;;5144669;27;19925;-67
2022/12/26 12:03:58;;;;;;;;;;;;;;;;;;5122552;27;19920;-68
2022/12/26 12:07:55;;;;;;;;;;;;;;;;;;5089301;27;20280;-68
2022/12/26 12:10:21;;;;;;;;;;;;;;;;;;5088395;28;19912;-68
2022/12/26 12:15:08;;;;;;;;;;;;;;;;;;4280263;27;24504106;-68
2022/12/26 12:17:35;;;;;;;;;;;;;;;;;;5150798;27;19955;-69
2022/12/26 12:20:02;;;;;;;;;;;;;;;;;;5150705;27;19907;-69
2022/12/26 12:22:28;;;;;;;;;;;;;;;;;;5132619;27;20271;-69
2022/12/26 12:24:57;;;;;;;;;;;;;;;;;;5151442;27;19914;-75
2022/12/26 12:27:23;;;;;;;;;;;;;;;;;;5133572;27;20286;-75
2022/12/26 12:31:18;;;;;;;;;;;;;;;;;;5105614;27;19916;-71
2022/12/26 12:33:45;;;;;;;;;;;;;;;;;;5110807;28;20013;-73
2022/12/26 12:36:16;;;;;;;;;;;;;;;;;;5110703;28;20360;-73
2022/12/26 12:38:47;;;;;;;;;;;;;;;;;;5110422;28;20341;-75
2022/12/26 12:41:18;;;;;;;;;;;;;;;;;;5110436;28;19912;-73
2022/12/26 12:43:48;;;;;;;;;;;;;;;;;;5110596;28;19908;-73
2022/12/26 12:46:15;;;;;;;;;;;;;;;;;;5110196;28;19908;-75
2022/12/26 12:49:38;;;;;;;;;;;;;;;;;;5151760;27;19915;-71
2022/12/26 12:52:04;;;;;;;;;;;;;;;;;;5151348;27;19911;-72
2022/12/26 12:54:30;;;;;;;;;;;;;;;;;;5151816;27;19913;-72
2022/12/26 12:56:56;;;;;;;;;;;;;;;;;;5151911;27;19911;-73
2022/12/26 13:00:31;;;;;;;;;;;;;;;;;;5089978;28;19917;-73
2022/12/26 13:02:57;;;;;;;;;;;;;;;;;;5090417;28;19916;-72
2022/12/26 13:05:26;;;;;;;;;;;;;;;;;;5089941;28;19912;-75
2022/12/26 13:07:52;;;;;;;;;;;;;;;;;;5087705;28;19962;-76
2022/12/26 13:10:18;;;;;;;;;;;;;;;;;;5090267;28;19909;-71
2022/12/26 13:12:44;;;;;;;;;;;;;;;;;;5089689;28;19909;-72
2022/12/26 13:15:17;;;;;;;;;;;;;;;;;;5089301;28;19909;-72
2022/12/26 13:17:44;;;;;;;;;;;;;;;;;;5090396;28;20368;-73
2022/12/26 13:20:11;;;;;;;;;;;;;;;;;;5088675;28;19927;-84
2022/12/26 13:25:21;;;;;;;;;;;;;;;;;;5090560;28;20375;-73
2022/12/26 13:27:47;;;;;;;;;;;;;;;;;;5089962;28;19908;-71
2022/12/26 13:30:14;;;;;;;;;;;;;;;;;;5090303;28;20360;-74
2022/12/26 13:32:40;;;;;;;;;;;;;;;;;;5090426;28;19909;-74
2022/12/26 13:35:06;;;;;;;;;;;;;;;;;;5090280;28;20069;-72
2022/12/26 13:38:35;;;;;;;;;;;;;;;;;;5090410;27;20391;-77
2022/12/26 13:43:55;;;;;;;;;;;;;;;;;;5089611;28;19962;-71
2022/12/26 13:46:39;;;;;;;;;;;;;;;;;;5087198;27;19920;-72
2022/12/26 13:49:06;;;;;;;;;;;;;;;;;;5087123;28;19919;-71
2022/12/26 13:51:32;;;;;;;;;;;;;;;;;;5088477;28;19958;-75
2022/12/26 13:53:58;;;;;;;;;;;;;;;;;;5090180;28;19999;-76
2022/12/26 13:56:24;;;;;;;;;;;;;;;;;;5089849;28;20434;-68
2022/12/26 13:58:50;;;;;;;;;;;;;;;;;;5090586;28;19908;-68
2022/12/26 14:01:16;;;;;;;;;;;;;;;;;;5091046;28;19909;-68
2022/12/26 14:03:42;;;;;;;;;;;;;;;;;;5084688;28;19909;-67
2022/12/26 14:08:40;;;;;;;;;;;;;;;;;;5062265;28;19916;-67
2022/12/26 14:11:06;;;;;;;;;;;;;;;;;;5070779;28;19919;-68
2022/12/26 14:13:32;;;;;;;;;;;;;;;;;;5070575;28;20011;-69
2022/12/26 14:18:27;;;;;;;;;;;;;;;;;;5091039;27;19916;-66
2022/12/26 14:20:54;;;;;;;;;;;;;;;;;;5089733;28;19999;-67
2022/12/26 14:23:20;;;;;;;;;;;;;;;;;;5089341;28;19915;-67
2022/12/26 14:25:46;;;;;;;;;;;;;;;;;;5091500;28;19908;-67
2022/12/26 14:29:14;;;;;;;;;;;;;;;;;;5091968;27;19916;-69
2022/12/26 14:31:40;;;;;;;;;;;;;;;;;;5090825;28;20019;-68
2022/12/26 14:34:05;;;;;;;;;;;;;;;;;;5091118;28;19915;-67
2022/12/26 14:37:54;;;;;;;;;;;;;;;;;;5071074;28;19917;-67
2022/12/26 14:40:20;;;;;;;;;;;;;;;;;;5069852;28;19996;-67
2022/12/26 14:47:24;;;;;;;;;;;;;;;;;;5092029;27;20276;-68
2022/12/26 14:49:50;;;;;;;;;;;;;;;;;;5091268;28;19913;-68
2022/12/26 14:52:16;;;;;;;;;;;;;;;;;;5090897;28;20327;-68
2022/12/26 14:54:45;;;;;;;;;;;;;;;;;;5091258;28;19934;-68
2022/12/26 14:57:11;;;;;;;;;;;;;;;;;;5091137;28;19909;-68
2022/12/26 15:04:14;;;;;;;;;;;;;;;;;;5091261;27;19923;-68
2022/12/26 15:06:40;;;;;;;;;;;;;;;;;;5090957;28;20432;-67
2022/12/26 15:10:18;;;;;;;;;;;;;;;;;;5091364;27;20266;-67
2022/12/26 15:12:44;;;;;;;;;;;;;;;;;;5091103;28;20003;-67
2022/12/26 15:17:13;;;;;;;;;;;;;;;;;;5153659;27;19915;-67
2022/12/26 15:22:07;;;;;;;;;;;;;;;;;;5111722;27;19916;-67
2022/12/26 15:24:33;;;;;;;;;;;;;;;;;;5111624;28;20011;-66
2022/12/26 15:26:59;;;;;;;;;;;;;;;;;;5111267;28;19911;-67
2022/12/26 15:29:25;;;;;;;;;;;;;;;;;;5111806;28;19914;-66
2022/12/26 15:31:51;;;;;;;;;;;;;;;;;;5111670;28;19908;-69
2022/12/26 15:34:17;;;;;;;;;;;;;;;;;;5109796;28;20279;-67
2022/12/26 15:36:43;;;;;;;;;;;;;;;;;;5111550;28;19933;-67
2022/12/26 15:39:09;;;;;;;;;;;;;;;;;;5111483;28;19960;-67
2022/12/26 15:41:35;;;;;;;;;;;;;;;;;;5111211;28;20388;-67
2022/12/26 15:44:01;;;;;;;;;;;;;;;;;;5111389;28;20348;-67
2022/12/26 15:46:27;;;;;;;;;;;;;;;;;;5111253;28;20391;-67
2022/12/26 15:48:52;;;;;;;;;;;;;;;;;;5110827;28;20283;-66
2022/12/26 15:51:18;;;;;;;;;;;;;;;;;;5111135;28;20325;-68
2022/12/26 15:53:44;;;;;;;;;;;;;;;;;;5109117;28;19983;-69
2022/12/26 15:56:10;;;;;;;;;;;;;;;;;;5130712;27;19914;-67
2022/12/26 15:58:36;;;;;;;;;;;;;;;;;;5131336;27;20013;-67
2022/12/26 16:01:02;;;;;;;;;;;;;;;;;;5131027;27;19961;-68
2022/12/26 16:03:28;;;;;;;;;;;;;;;;;;5131402;27;19908;-68
2022/12/26 16:05:55;;;;;;;;;;;;;;;;;;5131027;27;19908;-68
2022/12/26 16:08:21;;;;;;;;;;;;;;;;;;5131035;27;19946;-68
2022/12/26 16:10:47;;;;;;;;;;;;;;;;;;5130129;28;19912;-67
2022/12/26 16:13:21;;;;;;;;;;;;;;;;;;5131212;27;19908;-67
2022/12/26 16:15:47;;;;;;;;;;;;;;;;;;5130946;27;19912;-67
2022/12/26 16:18:13;;;;;;;;;;;;;;;;;;5131158;27;19908;-67
2022/12/26 16:23:23;;;;;;;;;;;;;;;;;;5130606;28;19933;-67
2022/12/26 16:25:49;;;;;;;;;;;;;;;;;;5131030;27;19912;-68
2022/12/26 16:28:15;;;;;;;;;;;;;;;;;;5129679;28;19908;-68
2022/12/26 16:30:41;;;;;;;;;;;;;;;;;;5129215;28;19908;-68
2022/12/26 16:33:07;;;;;;;;;;;;;;;;;;5118961;27;19908;-68
2022/12/26 16:35:33;;;;;;;;;;;;;;;;;;5117357;28;19916;-68
2022/12/26 16:37:59;;;;;;;;;;;;;;;;;;5116682;28;19907;-68
2022/12/26 16:40:25;;;;;;;;;;;;;;;;;;5116883;28;19911;-68
2022/12/26 16:42:51;;;;;;;;;;;;;;;;;;5117218;28;19915;-68
2022/12/26 16:45:17;;;;;;;;;;;;;;;;;;5116621;28;19912;-68
2022/12/26 16:47:43;;;;;;;;;;;;;;;;;;5117312;28;19915;-68
2022/12/26 16:50:09;;;;;;;;;;;;;;;;;;5116829;28;19986;-68
2022/12/26 16:52:35;;;;;;;;;;;;;;;;;;5115175;28;19954;-68
2022/12/26 16:55:01;;;;;;;;;;;;;;;;;;5116908;28;20352;-68
2022/12/26 16:57:27;;;;;;;;;;;;;;;;;;5116267;28;19911;-68
2022/12/26 16:59:53;;;;;;;;;;;;;;;;;;5116658;28;19928;-68
2022/12/26 17:02:19;;;;;;;;;;;;;;;;;;5116563;28;19988;-68
2022/12/26 17:04:45;;;;;;;;;;;;;;;;;;5116126;27;19930;-68
2022/12/26 17:07:11;;;;;;;;;;;;;;;;;;5116460;28;19961;-68
2022/12/26 17:09:36;;;;;;;;;;;;;;;;;;5116426;28;19912;-68
2022/12/26 17:12:03;;;;;;;;;;;;;;;;;;5115977;28;19912;-68
2022/12/26 17:14:29;;;;;;;;;;;;;;;;;;5116967;28;20012;-68
2022/12/26 17:16:55;;;;;;;;;;;;;;;;;;5116333;28;20237;-68
2022/12/26 17:19:21;;;;;;;;;;;;;;;;;;5114645;28;20326;-68
2022/12/26 17:21:47;;;;;;;;;;;;;;;;;;5116027;28;20350;-68
2022/12/26 17:24:13;;;;;;;;;;;;;;;;;;5116162;28;19908;-68
2022/12/26 17:26:39;;;;;;;;;;;;;;;;;;5115744;28;19915;-68
2022/12/26 17:29:05;;;;;;;;;;;;;;;;;;5115138;28;19908;-68
2022/12/26 17:31:31;;;;;;;;;;;;;;;;;;5116020;28;19952;-68
2022/12/26 17:33:57;;;;;;;;;;;;;;;;;;5115699;28;19911;-67
2022/12/26 17:36:23;;;;;;;;;;;;;;;;;;5115928;28;19907;-68
2022/12/26 17:38:49;;;;;;;;;;;;;;;;;;5115977;28;19908;-68
2022/12/26 17:41:15;;;;;;;;;;;;;;;;;;5115445;28;19922;-68
2022/12/26 17:43:41;;;;;;;;;;;;;;;;;;5114808;28;19946;-68
2022/12/26 17:46:07;;;;;;;;;;;;;;;;;;5115814;28;19916;-68
2022/12/26 17:48:32;;;;;;;;;;;;;;;;;;5115374;28;19908;-68
2022/12/26 17:50:58;;;;;;;;;;;;;;;;;;5115653;28;19908;-68
2022/12/26 17:53:25;;;;;;;;;;;;;;;;;;5115499;28;19907;-68
2022/12/26 17:55:51;;;;;;;;;;;;;;;;;;5115185;28;19908;-68
2022/12/26 17:58:17;;;;;;;;;;;;;;;;;;5115409;28;20379;-68
2022/12/26 18:00:43;;;;;;;;;;;;;;;;;;5115299;28;20284;-68
2022/12/26 18:03:09;;;;;;;;;;;;;;;;;;5114116;28;20279;-68
2022/12/26 18:05:35;;;;;;;;;;;;;;;;;;5115411;28;20241;-68
2022/12/26 18:08:00;;;;;;;;;;;;;;;;;;5114374;28;19915;-67
2022/12/26 18:10:29;;;;;;;;;;;;;;;;;;5113915;28;19911;-67
2022/12/26 18:12:55;;;;;;;;;;;;;;;;;;5115446;28;19907;-67
2022/12/26 18:15:21;;;;;;;;;;;;;;;;;;5114756;28;19956;-68
2022/12/26 18:17:47;;;;;;;;;;;;;;;;;;5115058;28;19955;-68
2022/12/26 18:20:13;;;;;;;;;;;;;;;;;;5114892;28;19920;-67
2022/12/26 18:22:39;;;;;;;;;;;;;;;;;;5114734;28;19916;-68
2022/12/26 18:25:05;;;;;;;;;;;;;;;;;;5115026;28;19908;-67
2022/12/26 18:27:31;;;;;;;;;;;;;;;;;;5113703;28;19914;-67
2022/12/26 18:30:01;;;;;;;;;;;;;;;;;;5114904;28;20328;-68
2022/12/26 18:32:27;;;;;;;;;;;;;;;;;;5113228;28;20379;-67
2022/12/26 18:34:54;;;;;;;;;;;;;;;;;;5114558;28;19912;-68
2022/12/26 18:37:20;;;;;;;;;;;;;;;;;;5113226;28;19908;-68
2022/12/26 18:39:46;;;;;;;;;;;;;;;;;;5114629;28;19915;-67
2022/12/26 18:42:12;;;;;;;;;;;;;;;;;;5114715;28;19915;-67
2022/12/26 18:44:38;;;;;;;;;;;;;;;;;;5114263;28;19908;-67
2022/12/26 18:47:04;;;;;;;;;;;;;;;;;;5114629;28;19907;-68
2022/12/26 18:49:30;;;;;;;;;;;;;;;;;;5114566;28;19908;-67
2022/12/26 18:51:56;;;;;;;;;;;;;;;;;;5114095;28;19946;-68
2022/12/26 18:54:22;;;;;;;;;;;;;;;;;;5114411;28;19933;-68
2022/12/26 18:56:48;;;;;;;;;;;;;;;;;;5114231;28;19908;-67
2022/12/26 18:59:14;;;;;;;;;;;;;;;;;;5113985;28;19908;-67
2022/12/26 19:01:40;;;;;;;;;;;;;;;;;;5114305;28;19915;-67
2022/12/26 19:04:06;;;;;;;;;;;;;;;;;;5114097;28;19953;-67
2022/12/26 19:06:34;;;;;;;;;;;;;;;;;;5114293;28;19908;-67
2022/12/26 19:08:59;;;;;;;;;;;;;;;;;;5114255;28;19952;-67
2022/12/26 19:11:25;;;;;;;;;;;;;;;;;;5114157;28;19943;-67
2022/12/26 19:13:54;;;;;;;;;;;;;;;;;;5114233;28;20374;-66
2022/12/26 19:16:21;;;;;;;;;;;;;;;;;;5114206;28;20019;-67
2022/12/26 19:18:47;;;;;;;;;;;;;;;;;;5113769;28;19912;-67
2022/12/26 19:21:13;;;;;;;;;;;;;;;;;;5113911;28;19983;-66
2022/12/26 19:23:39;;;;;;;;;;;;;;;;;;5113987;28;19907;-66
2022/12/26 19:26:05;;;;;;;;;;;;;;;;;;5113634;28;19998;-67
2022/12/26 19:28:31;;;;;;;;;;;;;;;;;;5114061;28;19908;-67
2022/12/26 19:30:57;;;;;;;;;;;;;;;;;;5113916;28;19970;-67
2022/12/26 19:33:23;;;;;;;;;;;;;;;;;;5113958;28;19917;-66
2022/12/26 19:35:49;;;;;;;;;;;;;;;;;;5114042;28;19943;-69
2022/12/26 19:38:15;;;;;;;;;;;;;;;;;;5113985;28;19907;-68
2022/12/26 19:40:41;;;;;;;;;;;;;;;;;;5113663;28;19915;-70
2022/12/26 19:43:07;;;;;;;;;;;;;;;;;;5113944;28;20003;-68
2022/12/26 19:45:33;;;;;;;;;;;;;;;;;;5114112;28;19915;-69
2022/12/26 19:47:59;;;;;;;;;;;;;;;;;;5113589;28;19908;-68
2022/12/26 19:50:25;;;;;;;;;;;;;;;;;;5113901;28;19908;-68
2022/12/26 19:52:51;;;;;;;;;;;;;;;;;;5112515;28;20392;-68
2022/12/26 19:55:17;;;;;;;;;;;;;;;;;;5112149;28;19911;-68
2022/12/26 19:57:42;;;;;;;;;;;;;;;;;;5113851;28;19914;-67
2022/12/26 20:00:09;;;;;;;;;;;;;;;;;;5111952;28;20018;-65
2022/12/26 20:02:35;;;;;;;;;;;;;;;;;;5113760;28;20331;-66